Terminal Aerodrome Forecast
Issued by NWS Tallahassee, FL

Home | Current Version | Previous Version | Text Only | Print | Product List | Glossary On
Versions: 1 2 3 4 5 6 7 8 9 10 11 12 13 14
000
FTUS42 KTAE 301100
TAFTLH
TAF
KTLH 301139Z 3012/3112 00000KT 3SM BR FEW002 SCT250
     FM301400 14003KT P6SM FEW030
     FM301700 16008KT P6SM VCTS SCT035CB BKN050
     FM310000 19004KT P6SM SCT250
     FM310900 00000KT 5SM BR FEW250=

USA.gov is the U.S. government's official web portal to all federal, state and local government web resources and services.